Terminal Aerodrome Forecast
Issued by NWS

Home | Current Version | Previous Version | Text Only | Print | Product List | Glossary On
Versions: 1 2 3 4 5 6 7 8 9 10 11 12 13 14 15 16 17 18 19 20 21 22 23 24 25
541
FTUS46 KSEW 272329
TAFSEA
TAF
KSEA 272329Z 2800/2906 25010G16KT P6SM VCSH SCT040 BKN080 BKN250
     FM280300 24009KT P6SM BKN040 BKN080
     FM280800 22008KT P6SM BKN030 OVC080
     FM281000 19008KT P6SM OVC022 PROB30 2815/2820 -RA
     FM282200 19012G20KT P6SM VCSH SCT025 BKN050=

USA.gov is the U.S. government's official web portal to all federal, state and local government web resources and services.